createdAt,value
2019-02-26T00:00:47.356Z,22.55
2019-02-26T00:01:53.028Z,25.27
2019-02-26T00:03:01.825Z,27.35
2019-02-26T00:04:04.391Z,24.43
2019-02-26T00:05:08.717Z,22.50
2019-02-26T00:06:12.550Z,24.75
2019-02-26T00:07:20.599Z,22.90
2019-02-26T00:08:24.597Z,19.55
2019-02-26T00:09:29.980Z,23.55
2019-02-26T00:10:36.317Z,27.42
2019-02-26T00:11:40.322Z,20.77
2019-02-26T00:12:44.953Z,18.52
2019-02-26T00:13:50.762Z,21.70
2019-02-26T00:14:56.940Z,23.00
2019-02-26T00:16:05.588Z,22.13
2019-02-26T00:17:10.532Z,24.85
2019-02-26T00:18:13.875Z,22.48
2019-02-26T00:19:19.401Z,27.75
2019-02-26T00:20:23.551Z,24.52
2019-02-26T00:21:29.267Z,25.48
2019-02-26T00:22:34.388Z,26.82
2019-02-26T00:23:39.160Z,21.10
2019-02-26T00:24:44.475Z,22.45
2019-02-26T00:25:49.662Z,21.50
2019-02-26T00:26:54.457Z,19.30
2019-02-26T00:27:59.326Z,21.48
2019-02-26T00:29:04.483Z,26.93
2019-02-26T00:30:11.334Z,21.10
2019-02-26T00:31:16.339Z,20.17
2019-02-26T00:32:20.277Z,20.45
2019-02-26T00:33:26.763Z,27.13
2019-02-26T00:34:32.271Z,23.35
2019-02-26T00:35:36.854Z,21.68
2019-02-26T00:36:40.695Z,22.55
2019-02-26T00:37:46.639Z,21.30
2019-02-26T00:38:51.823Z,21.15
2019-02-26T00:39:56.473Z,22.32
2019-02-26T00:41:02.186Z,19.45
2019-02-26T00:42:06.658Z,20.50
2019-02-26T00:43:11.158Z,18.32
2019-02-26T00:44:15.421Z,17.95
2019-02-26T00:45:24.749Z,23.42
2019-02-26T00:46:26.379Z,17.90
2019-02-26T00:47:33.904Z,17.60
2019-02-26T00:48:40.254Z,20.55
2019-02-26T00:49:44.227Z,19.12
2019-02-26T00:50:52.197Z,22.93
2019-02-26T00:51:56.170Z,16.93
2019-02-26T00:53:01.811Z,17.62
2019-02-26T00:54:05.975Z,19.62
2019-02-26T00:55:10.634Z,22.02
2019-02-26T00:56:15.147Z,18.07
2019-02-26T00:57:19.297Z,20.77
2019-02-26T00:58:23.132Z,16.65
2019-02-26T00:59:27.414Z,17.62
2019-02-26T01:00:33.192Z,14.78
2019-02-26T01:01:38.367Z,17.55
2019-02-26T01:02:42.730Z,16.15
2019-02-26T01:03:49.238Z,14.93
2019-02-26T01:04:52.890Z,17.77
2019-02-26T01:05:59.111Z,12.63
2019-02-26T01:07:05.325Z,16.15
2019-02-26T01:08:12.760Z,14.70
2019-02-26T01:09:15.344Z,14.47
2019-02-26T01:10:21.230Z,15.95
2019-02-26T01:11:27.888Z,18.35
2019-02-26T01:12:33.023Z,17.92
2019-02-26T01:13:38.334Z,15.15
2019-02-26T01:14:44.065Z,17.32
2019-02-26T01:15:48.453Z,19.40
2019-02-26T01:16:52.607Z,14.13
2019-02-26T01:17:58.779Z,17.48
2019-02-26T01:19:02.753Z,16.97
2019-02-26T01:20:09.582Z,17.05
2019-02-26T01:21:14.243Z,16.73
2019-02-26T01:22:18.728Z,16.05
2019-02-26T01:23:24.379Z,14.55
2019-02-26T01:24:30.460Z,18.98
2019-02-26T01:25:38.236Z,18.62
2019-02-26T01:26:42.918Z,14.30
2019-02-26T01:27:48.337Z,13.88
2019-02-26T01:28:53.669Z,14.20
2019-02-26T01:30:00.264Z,20.15
2019-02-26T01:31:05.020Z,15.68
2019-02-26T01:32:13.202Z,14.28
2019-02-26T01:33:16.039Z,16.05
2019-02-26T01:34:20.418Z,18.00
2019-02-26T01:35:26.179Z,17.75
2019-02-26T01:36:30.778Z,15.63
2019-02-26T01:37:36.621Z,18.25
2019-02-26T01:38:41.657Z,15.58
2019-02-26T01:39:47.853Z,19.30
2019-02-26T01:40:54.144Z,15.60
2019-02-26T01:41:58.852Z,17.23
2019-02-26T01:43:05.496Z,19.27
2019-02-26T01:44:08.960Z,19.37
2019-02-26T01:45:13.455Z,17.10
2019-02-26T01:46:18.753Z,16.57
2019-02-26T01:47:24.226Z,21.50
2019-02-26T01:48:32.024Z,17.40
2019-02-26T01:49:36.334Z,18.62
2019-02-26T01:50:40.795Z,16.87
2019-02-26T01:51:47.461Z,16.85
2019-02-26T01:52:51.883Z,19.62
2019-02-26T01:53:57.097Z,17.48
2019-02-26T01:55:02.798Z,17.25
2019-02-26T01:56:07.010Z,17.42
2019-02-26T01:57:11.239Z,15.32
2019-02-26T01:58:16.564Z,17.15
2019-02-26T01:59:20.606Z,16.85
2019-02-26T02:00:25.999Z,20.90
2019-02-26T02:01:29.912Z,17.35
2019-02-26T02:02:33.822Z,17.48
2019-02-26T02:03:38.055Z,17.62
2019-02-26T02:04:43.466Z,19.15
2019-02-26T02:05:48.531Z,19.87
2019-02-26T02:06:54.894Z,18.80
2019-02-26T02:07:59.898Z,21.48
2019-02-26T02:09:04.947Z,17.50
2019-02-26T02:10:10.612Z,18.27
2019-02-26T02:11:15.147Z,17.27
2019-02-26T02:12:19.650Z,21.12
2019-02-26T02:13:28.305Z,14.60
2019-02-26T02:14:30.250Z,18.07
2019-02-26T02:15:35.711Z,14.68
2019-02-26T02:16:40.055Z,17.55
2019-02-26T02:17:44.231Z,15.13
2019-02-26T02:18:48.879Z,16.15
2019-02-26T02:19:53.767Z,15.93
2019-02-26T02:20:58.257Z,16.10
2019-02-26T02:22:02.540Z,14.55
2019-02-26T02:23:07.147Z,14.58
2019-02-26T02:24:14.720Z,15.05
2019-02-26T02:25:17.334Z,16.45
2019-02-26T02:26:21.314Z,14.45
2019-02-26T02:27:28.127Z,15.23
2019-02-26T02:28:33.221Z,13.88
2019-02-26T02:29:37.185Z,16.80
2019-02-26T02:30:41.412Z,18.00
2019-02-26T02:31:45.607Z,13.85
2019-02-26T02:32:54.062Z,13.60
2019-02-26T02:33:55.743Z,16.55
2019-02-26T02:35:03.437Z,16.02
2019-02-26T02:36:05.784Z,15.65
2019-02-26T02:37:10.209Z,15.85
2019-02-26T02:38:14.121Z,15.78
2019-02-26T02:39:20.781Z,19.60
2019-02-26T02:40:23.912Z,13.78
2019-02-26T02:41:28.077Z,17.65
2019-02-26T02:42:35.063Z,14.75
2019-02-26T02:43:39.065Z,16.12
2019-02-26T02:44:44.858Z,14.25
2019-02-26T02:45:49.995Z,13.90
2019-02-26T02:46:54.828Z,13.20
2019-02-26T02:48:00.739Z,15.03
2019-02-26T02:49:07.381Z,14.07
2019-02-26T02:50:12.656Z,14.87
2019-02-26T02:51:17.455Z,13.80
2019-02-26T02:52:21.443Z,14.75
2019-02-26T02:53:27.413Z,16.02
2019-02-26T02:54:32.074Z,13.03
2019-02-26T02:55:37.921Z,16.02
2019-02-26T02:56:44.251Z,14.53
2019-02-26T02:57:51.951Z,12.98
2019-02-26T02:58:53.855Z,16.95
2019-02-26T02:59:59.685Z,18.12
2019-02-26T03:01:03.894Z,17.10
2019-02-26T03:02:09.340Z,13.83
2019-02-26T03:03:13.715Z,15.40
2019-02-26T03:04:19.774Z,16.97
2019-02-26T03:05:23.575Z,15.45
2019-02-26T03:06:30.182Z,14.68
2019-02-26T03:07:33.784Z,15.65
2019-02-26T03:08:39.511Z,14.45
2019-02-26T03:09:45.669Z,13.43
2019-02-26T03:10:49.380Z,14.93
2019-02-26T03:11:55.023Z,13.68
2019-02-26T03:13:00.425Z,14.10
2019-02-26T03:14:06.236Z,17.62
2019-02-26T03:15:11.892Z,16.00
2019-02-26T03:16:18.738Z,14.63
2019-02-26T03:17:21.868Z,16.07
2019-02-26T03:18:26.112Z,15.20
2019-02-26T03:19:32.662Z,18.37
2019-02-26T03:20:40.175Z,15.15
2019-02-26T03:21:44.631Z,15.20
2019-02-26T03:22:49.135Z,15.85
2019-02-26T03:23:53.071Z,15.40
2019-02-26T03:24:59.519Z,14.73
2019-02-26T03:26:03.360Z,16.57
2019-02-26T03:27:07.634Z,12.65
2019-02-26T03:28:11.563Z,13.53
2019-02-26T03:29:15.404Z,15.70
2019-02-26T03:30:26.731Z,12.33
2019-02-26T03:31:29.248Z,16.40
2019-02-26T03:32:36.044Z,13.05
2019-02-26T03:33:37.881Z,12.65
2019-02-26T03:34:42.511Z,13.25
2019-02-26T03:35:46.437Z,14.30
2019-02-26T03:36:50.617Z,14.60
2019-02-26T03:37:57.297Z,12.60
2019-02-26T03:39:02.771Z,17.12
2019-02-26T03:40:08.224Z,15.23
2019-02-26T03:41:13.273Z,13.75
2019-02-26T03:42:20.683Z,32.50
2019-02-26T03:43:23.220Z,15.32
2019-02-26T03:44:30.244Z,15.72
2019-02-26T03:45:34.224Z,15.58
2019-02-26T03:46:38.378Z,16.90
2019-02-26T03:47:42.363Z,12.47
2019-02-26T03:48:46.358Z,13.95
2019-02-26T03:49:50.477Z,16.45
2019-02-26T03:50:54.477Z,18.73
2019-02-26T03:52:00.037Z,16.62
2019-02-26T03:53:09.034Z,12.15
2019-02-26T03:54:10.483Z,15.08
2019-02-26T03:55:18.374Z,16.62
2019-02-26T03:56:20.674Z,17.95
2019-02-26T03:57:25.371Z,16.57
2019-02-26T03:58:29.396Z,16.62
2019-02-26T03:59:33.394Z,12.50
2019-02-26T04:00:40.964Z,14.25
2019-02-26T04:01:44.038Z,14.55
2019-02-26T04:02:50.924Z,15.10
2019-02-26T04:03:54.653Z,14.38
2019-02-26T04:05:03.013Z,15.80
2019-02-26T04:06:09.191Z,12.80
2019-02-26T04:07:11.888Z,14.58
2019-02-26T04:08:19.012Z,16.30
2019-02-26T04:09:22.949Z,21.02
2019-02-26T04:10:26.930Z,29.25
2019-02-26T04:11:30.765Z,31.62
2019-02-26T04:12:39.190Z,19.60
2019-02-26T04:13:40.999Z,17.45
2019-02-26T04:14:46.384Z,17.95
2019-02-26T04:15:53.305Z,18.20
2019-02-26T04:16:58.642Z,16.95
2019-02-26T04:18:03.072Z,15.45
2019-02-26T04:19:08.915Z,16.65
2019-02-26T04:20:12.876Z,20.80
2019-02-26T04:21:18.258Z,24.47
2019-02-26T04:22:33.059Z,22.37
2019-02-26T04:23:38.813Z,17.77
2019-02-26T04:24:42.938Z,18.23
2019-02-26T04:26:36.953Z,25.75
2019-02-26T04:28:10.836Z,18.07
2019-02-26T04:29:44.053Z,19.20
2019-02-26T04:31:27.286Z,20.02
2019-02-26T04:33:30.152Z,17.23
2019-02-26T04:34:41.587Z,17.23
2019-02-26T04:36:16.800Z,17.17
2019-02-26T04:37:53.684Z,17.48
2019-02-26T04:39:24.363Z,17.70
2019-02-26T04:40:47.727Z,16.48
2019-02-26T04:42:32.743Z,16.00
2019-02-26T04:44:13.490Z,17.87
2019-02-26T04:46:02.223Z,16.55
2019-02-26T04:47:23.597Z,23.47
2019-02-26T04:48:31.323Z,20.97
2019-02-26T04:49:36.730Z,17.95
2019-02-26T04:50:43.987Z,17.57
2019-02-26T04:51:48.381Z,16.73
2019-02-26T04:52:55.389Z,17.23
2019-02-26T04:54:00.113Z,26.57
2019-02-26T04:55:04.972Z,28.83
2019-02-26T04:56:14.400Z,59.60
2019-02-26T04:57:15.178Z,61.88
2019-02-26T04:58:20.746Z,53.28
2019-02-26T04:59:25.011Z,27.50
2019-02-26T05:00:30.458Z,20.00
2019-02-26T05:01:34.771Z,20.15
2019-02-26T05:02:38.964Z,23.32
2019-02-26T05:03:43.203Z,21.90
2019-02-26T05:04:47.544Z,21.12
2019-02-26T05:05:53.920Z,25.40
2019-02-26T05:06:57.179Z,17.67
2019-02-26T05:08:04.052Z,15.80
2019-02-26T05:09:08.075Z,16.52
2019-02-26T05:10:13.183Z,18.02
2019-02-26T05:11:30.781Z,17.07
2019-02-26T05:12:25.171Z,19.12
2019-02-26T05:13:30.206Z,14.60
2019-02-26T05:14:34.914Z,14.28
2019-02-26T05:15:39.068Z,15.08
2019-02-26T05:16:43.652Z,15.78
2019-02-26T05:17:48.000Z,13.45
2019-02-26T05:18:55.008Z,16.37
2019-02-26T05:19:57.784Z,14.95
2019-02-26T05:21:04.559Z,14.43
2019-02-26T05:22:08.440Z,16.15
2019-02-26T05:23:12.615Z,15.85
2019-02-26T05:24:18.005Z,21.33
2019-02-26T05:25:22.120Z,28.30
2019-02-26T05:26:26.253Z,35.33
2019-02-26T05:27:30.444Z,94.40
2019-02-26T05:28:37.632Z,42.55
2019-02-26T05:29:41.014Z,42.60
2019-02-26T05:30:49.524Z,39.67
2019-02-26T05:31:52.472Z,40.00
2019-02-26T05:32:58.253Z,24.15
2019-02-26T05:34:03.839Z,22.42
2019-02-26T05:35:07.836Z,20.02
2019-02-26T05:36:14.222Z,19.70
2019-02-26T05:37:17.901Z,22.65
2019-02-26T05:38:23.924Z,23.75
2019-02-26T05:39:28.843Z,24.98
2019-02-26T05:40:37.502Z,27.52
2019-02-26T05:41:40.539Z,23.40
2019-02-26T05:42:45.234Z,19.87
2019-02-26T05:43:52.174Z,21.45
2019-02-26T05:44:59.157Z,21.05
2019-02-26T05:46:03.862Z,22.48
2019-02-26T05:47:06.805Z,18.70
2019-02-26T05:48:12.729Z,20.25
2019-02-26T05:49:19.369Z,16.85
2019-02-26T05:50:22.952Z,18.27
2019-02-26T05:51:27.914Z,16.02
2019-02-26T05:52:35.654Z,18.20
2019-02-26T05:53:38.821Z,16.62
2019-02-26T05:54:42.728Z,17.80
2019-02-26T05:55:48.756Z,20.15
2019-02-26T05:56:52.965Z,19.65
2019-02-26T05:57:56.896Z,22.77
2019-02-26T05:59:04.347Z,25.50
2019-02-26T06:00:08.573Z,21.40
2019-02-26T06:01:16.160Z,24.95
2019-02-26T06:02:21.723Z,37.10
2019-02-26T06:03:25.712Z,31.50
2019-02-26T06:04:31.708Z,36.13
2019-02-26T06:05:35.828Z,30.48
2019-02-26T06:06:40.036Z,23.12
2019-02-26T06:07:44.953Z,22.62
2019-02-26T06:08:48.809Z,24.15
2019-02-26T06:09:55.731Z,21.73
2019-02-26T06:10:59.426Z,21.57
2019-02-26T06:12:03.274Z,22.07
2019-02-26T06:13:10.056Z,18.82
2019-02-26T06:14:14.053Z,22.15
2019-02-26T06:15:20.216Z,21.57
2019-02-26T06:16:26.592Z,21.30
2019-02-26T06:17:30.499Z,19.90
2019-02-26T06:18:34.849Z,18.90
2019-02-26T06:19:44.930Z,22.87
2019-02-26T06:20:51.585Z,21.82
2019-02-26T06:21:56.661Z,27.60
2019-02-26T06:23:00.804Z,25.43
2019-02-26T06:24:06.162Z,17.65
2019-02-26T06:25:18.415Z,22.77
2019-02-26T06:26:17.819Z,22.30
2019-02-26T06:27:24.768Z,18.32
2019-02-26T06:28:28.616Z,16.60
2019-02-26T06:29:35.082Z,25.68
2019-02-26T06:30:39.963Z,16.30
2019-02-26T06:31:45.074Z,21.50
2019-02-26T06:32:50.169Z,16.70
2019-02-26T06:33:54.766Z,17.48
2019-02-26T06:34:58.597Z,25.17
2019-02-26T06:36:04.688Z,20.27
2019-02-26T06:37:19.690Z,16.85
2019-02-26T06:38:25.872Z,18.50
2019-02-26T06:39:31.767Z,18.62
2019-02-26T06:40:36.968Z,23.15
2019-02-26T06:41:42.381Z,23.73
2019-02-26T06:42:48.082Z,23.05
2019-02-26T06:43:54.950Z,20.95
2019-02-26T06:44:58.399Z,19.52
2019-02-26T06:46:03.186Z,23.73
2019-02-26T06:47:09.140Z,21.70
2019-02-26T06:48:16.981Z,22.32
2019-02-26T06:49:20.598Z,20.17
2019-02-26T06:50:25.129Z,18.85
2019-02-26T06:51:30.934Z,19.02
2019-02-26T06:52:37.309Z,17.75
2019-02-26T06:53:45.032Z,20.48
2019-02-26T06:54:50.586Z,19.82
2019-02-26T06:55:52.585Z,17.87
2019-02-26T06:56:56.923Z,22.07
2019-02-26T06:58:19.651Z,18.95
2019-02-26T06:59:31.852Z,21.95
2019-02-26T07:00:35.265Z,25.65
2019-02-26T07:01:41.819Z,25.48
2019-02-26T07:02:46.207Z,27.90
2019-02-26T07:03:50.267Z,27.58
2019-02-26T07:04:54.439Z,26.97
2019-02-26T07:06:01.652Z,33.15
2019-02-26T07:07:06.355Z,32.05
2019-02-26T07:08:09.876Z,32.78
2019-02-26T07:09:16.429Z,29.57
2019-02-26T07:10:24.304Z,35.13
2019-02-26T07:11:28.112Z,32.42
2019-02-26T07:12:32.573Z,34.60
2019-02-26T07:13:39.169Z,27.20
2019-02-26T07:14:43.452Z,31.30
2019-02-26T07:15:47.657Z,28.38
2019-02-26T07:16:52.159Z,31.77
2019-02-26T07:18:00.097Z,28.95
2019-02-26T07:19:03.904Z,26.93
2019-02-26T07:20:09.131Z,23.47
2019-02-26T07:21:13.589Z,28.92
2019-02-26T07:22:18.338Z,28.75
2019-02-26T07:23:22.948Z,32.53
2019-02-26T07:24:27.286Z,29.10
2019-02-26T07:25:35.803Z,31.20
2019-02-26T07:26:41.156Z,28.25
2019-02-26T07:27:44.947Z,36.68
2019-02-26T07:28:50.925Z,34.78
2019-02-26T07:29:55.265Z,27.73
2019-02-26T07:31:00.462Z,31.57
2019-02-26T07:32:05.432Z,21.20
2019-02-26T07:33:10.407Z,20.15
2019-02-26T07:34:18.140Z,23.47
2019-02-26T07:35:21.432Z,24.82
2019-02-26T07:36:28.149Z,25.90
2019-02-26T07:37:34.047Z,25.72
2019-02-26T07:38:41.159Z,23.22
2019-02-26T07:39:44.325Z,26.75
2019-02-26T07:40:49.328Z,25.30
2019-02-26T07:41:54.403Z,26.87
2019-02-26T07:42:59.659Z,25.37
2019-02-26T07:44:03.556Z,21.85
2019-02-26T07:45:14.668Z,25.05
2019-02-26T07:46:14.592Z,24.05
2019-02-26T07:47:19.563Z,23.05
2019-02-26T07:48:26.201Z,21.45
2019-02-26T07:49:29.890Z,20.68
2019-02-26T07:50:37.435Z,21.12
2019-02-26T07:51:40.556Z,22.35
2019-02-26T07:52:47.311Z,21.48
2019-02-26T07:53:53.526Z,19.40
2019-02-26T07:54:57.484Z,22.15
2019-02-26T07:56:03.714Z,22.05
2019-02-26T07:57:07.592Z,24.43
2019-02-26T07:58:13.876Z,27.55
2019-02-26T07:59:27.252Z,26.02
2019-02-26T08:00:24.501Z,22.67
2019-02-26T08:01:28.434Z,25.45
2019-02-26T08:02:34.920Z,25.37
2019-02-26T08:03:39.338Z,23.35
2019-02-26T08:04:43.588Z,21.90
2019-02-26T08:05:47.679Z,24.23
2019-02-26T08:06:54.119Z,22.30
2019-02-26T08:07:58.647Z,24.87
2019-02-26T08:09:04.782Z,23.18
2019-02-26T08:10:12.821Z,24.72
2019-02-26T08:11:17.569Z,23.18
2019-02-26T08:12:22.056Z,23.60
2019-02-26T08:13:29.026Z,25.85
2019-02-26T08:14:32.606Z,27.75
2019-02-26T08:15:37.555Z,25.60
2019-02-26T08:16:42.232Z,23.00
2019-02-26T08:17:50.328Z,24.75
2019-02-26T08:18:54.120Z,26.37
2019-02-26T08:19:58.524Z,26.37
2019-02-26T08:21:03.031Z,29.42
2019-02-26T08:22:08.075Z,31.02
2019-02-26T08:23:12.326Z,25.25
2019-02-26T08:24:17.212Z,25.97
2019-02-26T08:25:22.178Z,28.05
2019-02-26T08:26:26.792Z,27.48
2019-02-26T08:27:33.313Z,29.23
2019-02-26T08:28:38.895Z,27.52
2019-02-26T08:29:43.402Z,27.42
2019-02-26T08:30:49.787Z,29.63
2019-02-26T08:31:54.586Z,27.07
2019-02-26T08:33:04.294Z,25.10
2019-02-26T08:34:06.315Z,27.52
2019-02-26T08:35:10.996Z,28.70
2019-02-26T08:36:14.857Z,29.82
2019-02-26T08:37:19.259Z,40.60
2019-02-26T08:38:23.171Z,45.73
2019-02-26T08:39:27.756Z,30.35
2019-02-26T08:40:32.444Z,27.05
2019-02-26T08:41:36.496Z,32.05
2019-02-26T08:42:40.452Z,25.77
2019-02-26T08:43:47.081Z,27.98
2019-02-26T08:44:51.994Z,27.77
2019-02-26T08:45:57.276Z,25.45
2019-02-26T08:47:06.009Z,24.77
2019-02-26T08:48:07.703Z,21.68
2019-02-26T08:49:13.777Z,24.07
2019-02-26T08:50:17.689Z,23.15
2019-02-26T08:51:22.565Z,28.45
2019-02-26T08:52:28.949Z,31.68
2019-02-26T08:53:32.808Z,24.90
2019-02-26T08:54:37.049Z,24.82
2019-02-26T08:55:41.452Z,24.92
2019-02-26T08:56:45.559Z,25.05
2019-02-26T08:57:51.543Z,22.42
2019-02-26T08:58:55.480Z,24.52
2019-02-26T08:59:59.749Z,22.75
2019-02-26T09:01:04.388Z,22.65
2019-02-26T09:02:08.394Z,20.48
2019-02-26T09:03:13.728Z,19.87
2019-02-26T09:04:21.061Z,22.07
2019-02-26T09:05:26.346Z,20.97
2019-02-26T09:06:30.014Z,23.62
2019-02-26T09:07:34.272Z,18.57
2019-02-26T09:08:40.652Z,15.98
2019-02-26T09:09:47.148Z,20.35
2019-02-26T09:10:50.451Z,18.48
2019-02-26T09:11:55.918Z,20.15
2019-02-26T09:13:00.480Z,20.68
2019-02-26T09:14:06.588Z,21.73
2019-02-26T09:15:12.426Z,16.45
2019-02-26T09:16:16.266Z,15.72
2019-02-26T09:17:23.174Z,16.73
2019-02-26T09:18:28.078Z,20.17
2019-02-26T09:19:33.012Z,17.17
2019-02-26T09:20:37.724Z,26.50
2019-02-26T09:21:44.599Z,15.28
2019-02-26T09:22:50.720Z,14.07
2019-02-26T09:23:56.907Z,16.70
2019-02-26T09:25:02.176Z,17.52
2019-02-26T09:26:07.057Z,16.67
2019-02-26T09:27:11.628Z,23.65
2019-02-26T09:28:15.630Z,17.23
2019-02-26T09:29:22.154Z,14.15
2019-02-26T09:30:27.945Z,13.62
2019-02-26T09:31:31.461Z,18.57
2019-02-26T09:32:37.428Z,13.38
2019-02-26T09:33:43.587Z,14.23
2019-02-26T09:34:46.992Z,14.30
2019-02-26T09:35:52.143Z,14.70
2019-02-26T09:36:58.223Z,14.05
2019-02-26T09:38:02.515Z,17.85
2019-02-26T09:39:08.759Z,14.63
2019-02-26T09:40:14.411Z,22.77
2019-02-26T09:41:19.407Z,14.68
2019-02-26T09:42:25.656Z,16.23
2019-02-26T09:43:29.697Z,15.55
2019-02-26T09:44:35.756Z,15.18
2019-02-26T09:45:41.192Z,13.78
2019-02-26T09:46:45.207Z,13.28
2019-02-26T09:47:50.196Z,16.23
2019-02-26T09:48:55.426Z,11.93
2019-02-26T09:49:59.700Z,17.05
2019-02-26T09:51:04.822Z,14.73
2019-02-26T09:52:09.736Z,14.25
2019-02-26T09:53:13.639Z,13.20
2019-02-26T09:54:20.019Z,13.13
2019-02-26T09:55:23.759Z,14.83
2019-02-26T09:56:28.195Z,11.93
2019-02-26T09:57:32.847Z,16.00
2019-02-26T09:58:37.481Z,12.33
2019-02-26T09:59:42.489Z,10.90
2019-02-26T10:00:48.119Z,12.30
2019-02-26T10:01:54.153Z,13.28
2019-02-26T10:02:58.291Z,14.15
2019-02-26T10:04:05.391Z,12.13
2019-02-26T10:05:08.640Z,13.95
2019-02-26T10:06:15.561Z,14.95
2019-02-26T10:07:19.196Z,11.25
2019-02-26T10:08:24.950Z,14.03
2019-02-26T10:09:28.698Z,12.10
2019-02-26T10:10:33.689Z,12.13
2019-02-26T10:11:40.280Z,11.38
2019-02-26T10:12:44.922Z,11.90
2019-02-26T10:13:49.402Z,11.25
2019-02-26T10:14:57.702Z,14.65
2019-02-26T10:16:02.043Z,11.65
2019-02-26T10:17:06.631Z,12.70
2019-02-26T10:18:10.536Z,15.43
2019-02-26T10:19:15.314Z,11.40
2019-02-26T10:20:24.773Z,12.65
2019-02-26T10:21:26.841Z,16.70
2019-02-26T10:22:33.364Z,15.30
2019-02-26T10:23:37.561Z,12.50
2019-02-26T10:24:42.010Z,15.78
2019-02-26T10:25:45.925Z,14.80
2019-02-26T10:26:49.834Z,14.00
2019-02-26T10:27:53.817Z,13.50
2019-02-26T10:29:03.683Z,13.62
2019-02-26T10:30:07.202Z,11.30
2019-02-26T10:31:09.766Z,19.70
2019-02-26T10:32:13.601Z,18.55
2019-02-26T10:33:19.178Z,16.05
2019-02-26T10:34:26.848Z,16.52
2019-02-26T10:35:33.161Z,16.77
2019-02-26T10:36:40.744Z,13.93
2019-02-26T10:37:53.051Z,12.28
2019-02-26T10:38:57.860Z,15.30
2019-02-26T10:40:02.865Z,15.75
2019-02-26T10:41:06.772Z,14.45
2019-02-26T10:42:12.161Z,11.48
2019-02-26T10:43:16.571Z,13.80
2019-02-26T10:44:21.244Z,14.93
2019-02-26T10:45:26.028Z,14.45
2019-02-26T10:46:32.140Z,16.02
2019-02-26T10:47:35.888Z,18.07
2019-02-26T10:48:41.607Z,17.10
2019-02-26T10:49:46.749Z,17.42
2019-02-26T10:50:52.005Z,15.63
2019-02-26T10:51:57.864Z,16.48
2019-02-26T10:53:07.333Z,13.83
2019-02-26T10:54:09.661Z,14.65
2019-02-26T10:55:17.299Z,17.98
2019-02-26T10:56:19.014Z,13.38
2019-02-26T10:57:22.991Z,16.77
2019-02-26T10:58:27.168Z,14.03
2019-02-26T10:59:31.065Z,15.05
2019-02-26T11:00:37.834Z,14.35
2019-02-26T11:01:41.473Z,11.93
2019-02-26T11:02:46.081Z,12.53
2019-02-26T11:03:52.844Z,16.20
2019-02-26T11:04:56.967Z,14.05
2019-02-26T11:06:01.396Z,18.25
2019-02-26T11:07:08.837Z,11.78
2019-02-26T11:08:11.011Z,13.65
2019-02-26T11:09:18.223Z,11.57
2019-02-26T11:10:22.706Z,17.98
2019-02-26T11:11:26.526Z,16.48
2019-02-26T11:12:33.409Z,16.62
2019-02-26T11:13:37.366Z,21.23
2019-02-26T11:14:42.386Z,14.05
2019-02-26T11:15:48.851Z,14.00
2019-02-26T11:16:53.730Z,17.12
2019-02-26T11:17:58.161Z,15.23
2019-02-26T11:19:04.225Z,12.88
2019-02-26T11:20:09.252Z,15.05
2019-02-26T11:21:13.174Z,15.35
2019-02-26T11:22:20.157Z,13.62
2019-02-26T11:23:30.739Z,15.38
2019-02-26T11:24:31.411Z,15.88
2019-02-26T11:25:36.940Z,11.43
2019-02-26T11:26:43.730Z,16.60
2019-02-26T11:27:48.513Z,16.97
2019-02-26T11:28:52.685Z,13.83
2019-02-26T11:29:57.818Z,14.28
2019-02-26T11:31:02.568Z,12.15
2019-02-26T11:32:07.806Z,15.32
2019-02-26T11:33:15.086Z,18.50
2019-02-26T11:34:18.660Z,13.70
2019-02-26T11:35:24.652Z,17.10
2019-02-26T11:36:31.243Z,16.65
2019-02-26T11:37:34.547Z,11.60
2019-02-26T11:38:40.200Z,14.58
2019-02-26T11:39:45.128Z,16.62
2019-02-26T11:40:49.053Z,15.90
2019-02-26T11:41:54.577Z,18.73
2019-02-26T11:43:00.078Z,13.43
2019-02-26T11:44:09.869Z,21.82
2019-02-26T11:45:17.427Z,14.00
2019-02-26T11:46:22.594Z,18.00
2019-02-26T11:47:26.360Z,12.93
2019-02-26T11:48:32.687Z,17.20
2019-02-26T11:49:36.888Z,13.70
2019-02-26T11:50:44.544Z,13.32
2019-02-26T11:51:48.473Z,11.55
2019-02-26T11:52:54.819Z,15.78
2019-02-26T11:54:00.073Z,11.45
2019-02-26T11:55:06.554Z,10.58
2019-02-26T11:56:10.796Z,12.65
2019-02-26T11:57:15.406Z,14.03
2019-02-26T11:58:22.308Z,12.50
2019-02-26T11:59:27.104Z,13.62
2019-02-26T12:00:45.485Z,15.78
2019-02-26T12:01:50.445Z,12.37
2019-02-26T12:02:54.731Z,22.55
2019-02-26T12:04:03.591Z,12.13
2019-02-26T12:05:08.000Z,12.37
2019-02-26T12:06:11.620Z,17.17
2019-02-26T12:07:15.543Z,10.03
2019-02-26T12:08:22.343Z,16.02
2019-02-26T12:09:25.705Z,11.75
2019-02-26T12:10:32.293Z,12.45
2019-02-26T12:11:35.711Z,13.13
2019-02-26T12:12:40.288Z,13.18
2019-02-26T12:13:45.176Z,13.93
2019-02-26T12:14:50.921Z,11.38
2019-02-26T12:15:55.077Z,14.65
2019-02-26T12:16:59.003Z,14.73
2019-02-26T12:18:03.250Z,9.33
2019-02-26T12:19:08.749Z,13.15
2019-02-26T12:20:14.856Z,11.05
2019-02-26T12:21:19.856Z,14.00
2019-02-26T12:22:25.112Z,10.05
2019-02-26T12:23:29.673Z,7.58
2019-02-26T12:24:36.015Z,12.30
2019-02-26T12:25:39.911Z,10.93
2019-02-26T12:26:45.284Z,11.15
2019-02-26T12:27:49.400Z,9.88
2019-02-26T12:28:54.724Z,10.03
2019-02-26T12:30:00.023Z,14.65
2019-02-26T12:31:05.141Z,13.05
2019-02-26T12:32:09.967Z,10.25
2019-02-26T12:33:14.773Z,11.15
2019-02-26T12:34:20.820Z,10.85
2019-02-26T12:35:24.756Z,9.65
2019-02-26T12:36:30.453Z,11.03
2019-02-26T12:37:35.388Z,10.95
2019-02-26T12:38:39.903Z,10.25
2019-02-26T12:39:47.447Z,10.08
2019-02-26T12:40:53.403Z,12.10
2019-02-26T12:41:56.211Z,12.45
2019-02-26T12:43:01.996Z,8.55
2019-02-26T12:44:10.960Z,9.08
2019-02-26T12:45:13.739Z,8.70
2019-02-26T12:46:19.775Z,12.07
2019-02-26T12:47:24.671Z,9.55
2019-02-26T12:48:29.349Z,11.75
2019-02-26T12:49:36.524Z,9.55
2019-02-26T12:50:40.585Z,12.90
2019-02-26T12:51:44.734Z,7.20
2019-02-26T12:52:51.598Z,9.08
2019-02-26T12:53:55.063Z,14.47
2019-02-26T12:55:00.706Z,9.40
2019-02-26T12:56:08.876Z,7.78
2019-02-26T12:57:12.089Z,8.73
2019-02-26T12:58:19.478Z,11.05
2019-02-26T12:59:22.254Z,10.82
2019-02-26T13:00:26.390Z,7.05
2019-02-26T13:01:33.147Z,9.00
2019-02-26T13:02:36.928Z,8.10
2019-02-26T13:03:42.831Z,7.97
2019-02-26T13:04:50.991Z,10.38
2019-02-26T13:05:53.718Z,5.60
2019-02-26T13:06:58.342Z,7.67
2019-02-26T13:08:03.297Z,8.33
2019-02-26T13:09:08.206Z,8.13
2019-02-26T13:10:14.886Z,8.65
2019-02-26T13:11:20.965Z,11.93
2019-02-26T13:12:31.571Z,6.95
2019-02-26T13:13:31.612Z,10.38
2019-02-26T13:14:35.614Z,6.90
2019-02-26T13:15:39.841Z,8.43
2019-02-26T13:16:46.282Z,7.60
2019-02-26T13:17:54.321Z,6.80
2019-02-26T13:19:00.175Z,6.78
2019-02-26T13:20:06.001Z,6.55
2019-02-26T13:21:12.748Z,7.83
2019-02-26T13:22:17.369Z,7.03
2019-02-26T13:23:20.733Z,6.33
2019-02-26T13:24:26.674Z,11.08
2019-02-26T13:25:30.904Z,7.65
2019-02-26T13:26:36.493Z,5.05
2019-02-26T13:27:43.774Z,7.08
2019-02-26T13:28:48.058Z,8.63
2019-02-26T13:29:55.222Z,11.28
2019-02-26T13:31:02.325Z,5.35
2019-02-26T13:32:07.506Z,7.50
2019-02-26T13:33:10.860Z,4.35
2019-02-26T13:34:15.892Z,4.25
2019-02-26T13:35:20.362Z,6.37
2019-02-26T13:36:24.775Z,4.60
2019-02-26T13:37:32.462Z,5.03
2019-02-26T13:38:44.073Z,4.08
2019-02-26T13:39:41.364Z,4.67
2019-02-26T13:40:46.266Z,3.30
2019-02-26T13:41:54.335Z,9.95
2019-02-26T13:44:01.930Z,5.15
2019-02-26T13:45:07.400Z,13.28
2019-02-26T13:46:11.765Z,4.45
2019-02-26T13:47:16.366Z,7.92
2019-02-26T13:48:21.192Z,6.35
2019-02-26T13:49:25.287Z,5.60
2019-02-26T13:50:29.546Z,3.87
2019-02-26T13:51:34.247Z,5.45
2019-02-26T13:52:38.740Z,4.03
2019-02-26T13:53:42.908Z,4.90
2019-02-26T13:54:46.819Z,2.92
2019-02-26T13:55:50.679Z,2.80
2019-02-26T13:56:55.005Z,7.53
2019-02-26T13:57:59.264Z,3.37
2019-02-26T13:59:03.605Z,8.55
2019-02-26T14:00:08.802Z,3.30
2019-02-26T14:01:13.120Z,6.80
2019-02-26T14:02:17.389Z,5.17
2019-02-26T14:03:21.579Z,2.72
2019-02-26T14:04:25.410Z,6.37
2019-02-26T14:05:37.723Z,2.70
2019-02-26T14:06:36.042Z,4.67
2019-02-26T14:07:40.239Z,4.53
2019-02-26T14:08:44.960Z,3.25
2019-02-26T14:09:49.058Z,4.70
2019-02-26T14:10:53.543Z,5.28
2019-02-26T14:11:57.455Z,4.83